createdAt,value
2019-01-09T00:00:34.080Z,100349.58
2019-01-09T00:05:37.156Z,100365.13
2019-01-09T00:10:39.301Z,100367.01
2019-01-09T00:15:43.995Z,100376.13
2019-01-09T00:20:47.596Z,100371.15
2019-01-09T00:25:50.111Z,100397.00
2019-01-09T00:30:53.013Z,100413.76
2019-01-09T00:35:55.641Z,100428.11
2019-01-09T00:40:58.324Z,100415.92
2019-01-09T00:46:01.234Z,100437.73
2019-01-09T00:51:08.857Z,100434.09
2019-01-09T00:56:11.572Z,100452.23
2019-01-09T01:01:14.096Z,100466.64
2019-01-09T01:06:57.075Z,100466.19
2019-01-09T01:12:43.388Z,100470.19
2019-01-09T01:18:09.551Z,100467.58
2019-01-09T01:24:02.951Z,100499.75
2019-01-09T01:30:05.640Z,100507.31
2019-01-09T01:35:56.437Z,100505.86
2019-01-09T01:41:05.480Z,100522.41
2019-01-09T01:46:15.937Z,100525.09
2019-01-09T01:51:53.909Z,100531.16
2019-01-09T01:57:46.378Z,100547.48
2019-01-09T02:03:42.055Z,100555.19
2019-01-09T02:09:11.749Z,100562.27
2019-01-09T02:15:01.038Z,100563.05
2019-01-09T02:20:27.709Z,100563.34
2019-01-09T02:26:20.672Z,100576.86
2019-01-09T02:31:43.877Z,100580.70
2019-01-09T02:36:46.947Z,100590.97
2019-01-09T02:41:49.873Z,100598.97
2019-01-09T02:46:52.703Z,100609.63
2019-01-09T02:51:55.773Z,100603.97
2019-01-09T02:56:58.165Z,100617.13
2019-01-09T03:02:01.245Z,100616.37
2019-01-09T03:07:04.490Z,100625.12
2019-01-09T03:12:07.077Z,100618.30
2019-01-09T03:17:09.271Z,100627.20
2019-01-09T03:22:11.820Z,100638.48
2019-01-09T03:27:14.692Z,100639.06
2019-01-09T03:32:17.975Z,100633.08
2019-01-09T03:37:20.372Z,100647.02
2019-01-09T03:42:22.962Z,100642.31
2019-01-09T03:47:25.851Z,100655.56
2019-01-09T03:52:28.791Z,100657.01
2019-01-09T03:57:31.496Z,100668.26
2019-01-09T04:02:33.674Z,100670.17
2019-01-09T04:07:36.345Z,100673.05
2019-01-09T04:12:39.313Z,100672.00
2019-01-09T04:17:41.633Z,100682.45
2019-01-09T04:22:44.544Z,100678.73
2019-01-09T04:27:48.902Z,100693.61
2019-01-09T04:32:51.780Z,100700.61
2019-01-09T04:37:54.772Z,100705.06
2019-01-09T04:43:03.924Z,100705.06
2019-01-09T04:48:07.154Z,100713.59
2019-01-09T04:53:09.734Z,100705.23
2019-01-09T04:58:12.131Z,100721.30
2019-01-09T05:03:14.937Z,100717.63
2019-01-09T05:08:17.735Z,100731.86
2019-01-09T05:13:20.084Z,100728.87
2019-01-09T05:18:22.821Z,100735.70
2019-01-09T05:23:25.417Z,100738.58
2019-01-09T05:28:27.988Z,100741.64
2019-01-09T05:33:31.007Z,100752.30
2019-01-09T05:38:33.590Z,100756.14
2019-01-09T05:43:36.499Z,100764.50
2019-01-09T05:48:38.911Z,100764.11
2019-01-09T05:53:41.798Z,100777.09
2019-01-09T05:58:44.433Z,100788.52
2019-01-09T06:03:46.483Z,100773.14
2019-01-09T06:08:49.117Z,100776.05
2019-01-09T06:13:51.852Z,100786.67
2019-01-09T06:18:54.883Z,100795.44
2019-01-09T06:23:57.777Z,100808.78
2019-01-09T06:29:00.173Z,100808.70
2019-01-09T06:34:02.669Z,100819.08
2019-01-09T06:39:06.302Z,100825.05
2019-01-09T06:44:08.460Z,100846.44
2019-01-09T06:49:11.381Z,100848.08
2019-01-09T06:54:14.127Z,100854.42
2019-01-09T06:59:16.983Z,100869.22
2019-01-09T07:04:19.627Z,100868.41
2019-01-09T07:09:22.071Z,100880.31
2019-01-09T07:14:24.569Z,100881.00
2019-01-09T07:19:27.603Z,100889.52
2019-01-09T07:24:29.663Z,100900.44
2019-01-09T07:29:32.456Z,100905.78
2019-01-09T07:34:34.630Z,100918.67
2019-01-09T07:39:37.317Z,100916.61
2019-01-09T07:44:40.319Z,100921.14
2019-01-09T07:49:43.344Z,100926.55
2019-01-09T07:54:45.964Z,100940.54
2019-01-09T07:59:48.728Z,100947.77
2019-01-09T08:04:50.788Z,100952.36
2019-01-09T08:09:54.229Z,100959.31
2019-01-09T08:14:56.972Z,100978.77
2019-01-09T08:19:59.214Z,100982.66
2019-01-09T08:25:02.348Z,100992.18
2019-01-09T08:30:06.455Z,101016.81
2019-01-09T08:35:09.490Z,101007.39
2019-01-09T08:40:11.655Z,101011.97
2019-01-09T08:45:14.141Z,101022.02
2019-01-09T08:50:16.949Z,101036.02
2019-01-09T08:55:19.780Z,101045.12
2019-01-09T09:00:22.769Z,101040.64
2019-01-09T09:05:25.063Z,101060.12
2019-01-09T09:10:28.170Z,101064.56
2019-01-09T09:15:30.238Z,101064.45
2019-01-09T09:20:32.921Z,101081.11
2019-01-09T09:25:35.695Z,101080.87
2019-01-09T09:30:38.521Z,101095.14
2019-01-09T09:35:41.304Z,101105.78
2019-01-09T09:40:44.133Z,101107.91
2019-01-09T09:45:46.501Z,101115.02
2019-01-09T09:50:49.322Z,101118.87
2019-01-09T09:55:52.161Z,101120.63
2019-01-09T10:00:55.552Z,101139.53
2019-01-09T10:05:58.565Z,101138.50
2019-01-09T10:11:01.482Z,101162.85
2019-01-09T10:16:04.179Z,101133.41
2019-01-09T10:21:07.152Z,101139.52
2019-01-09T10:26:09.923Z,101144.50
2019-01-09T10:31:12.857Z,101160.90
2019-01-09T10:36:15.428Z,101167.16
2019-01-09T10:41:17.953Z,101168.14
2019-01-09T10:46:20.443Z,101170.75
2019-01-09T10:51:23.144Z,101181.17
2019-01-09T10:56:26.082Z,101176.29
2019-01-09T11:01:28.870Z,101179.84
2019-01-09T11:06:31.825Z,101192.20
2019-01-09T11:11:34.611Z,101181.60
2019-01-09T11:16:37.249Z,101188.59
2019-01-09T11:21:39.734Z,101200.44
2019-01-09T11:26:42.194Z,101200.17
2019-01-09T11:31:45.139Z,101202.56
2019-01-09T11:36:48.211Z,101206.09
2019-01-09T11:41:50.321Z,101202.72
2019-01-09T11:46:53.527Z,101213.65
2019-01-09T11:51:56.427Z,101213.63
2019-01-09T11:56:59.345Z,101215.37
2019-01-09T12:02:02.730Z,101224.23
2019-01-09T12:07:05.716Z,101224.17
2019-01-09T12:12:08.458Z,101239.75
2019-01-09T12:17:11.050Z,101229.56
2019-01-09T12:22:13.990Z,101240.86
2019-01-09T12:27:17.917Z,101237.05
2019-01-09T12:32:21.892Z,101237.44
2019-01-09T12:37:25.118Z,101252.03
2019-01-09T12:42:27.802Z,101265.73
2019-01-09T12:47:30.426Z,101255.57
2019-01-09T12:52:33.528Z,101273.87
2019-01-09T12:57:36.189Z,101285.92
2019-01-09T13:02:38.886Z,101303.11
2019-01-09T13:07:41.502Z,101305.44
2019-01-09T13:12:44.106Z,101316.88
2019-01-09T13:17:46.831Z,101327.75
2019-01-09T13:22:49.816Z,101341.23
2019-01-09T13:27:53.036Z,101343.19
2019-01-09T13:32:56.212Z,101353.89
2019-01-09T13:37:58.841Z,101351.48
2019-01-09T13:43:01.725Z,101359.35
2019-01-09T13:48:04.129Z,101377.53
2019-01-09T13:53:06.610Z,101378.15
2019-01-09T13:58:09.376Z,101391.94
2019-01-09T14:03:12.152Z,101402.98
2019-01-09T14:08:14.939Z,101399.42
2019-01-09T14:13:17.605Z,101403.95
2019-01-09T14:18:20.008Z,101415.10
2019-01-09T14:23:22.408Z,101425.20
2019-01-09T14:28:25.226Z,101430.89
2019-01-09T14:33:27.984Z,101443.47
2019-01-09T14:38:30.545Z,101441.16
2019-01-09T14:43:33.502Z,101441.64
2019-01-09T14:48:36.335Z,101444.19
2019-01-09T14:53:39.122Z,101463.51
2019-01-09T14:58:41.872Z,101461.91
2019-01-09T15:03:44.905Z,101469.23
2019-01-09T15:08:49.746Z,101476.34
2019-01-09T15:13:54.590Z,101478.59
2019-01-09T15:18:57.603Z,101484.77
2019-01-09T15:24:08.173Z,101490.77
2019-01-09T15:29:05.104Z,101503.82
2019-01-09T15:34:07.874Z,101506.27
2019-01-09T15:39:10.435Z,101508.61
2019-01-09T15:44:13.453Z,101522.23
2019-01-09T15:49:16.152Z,101519.12
2019-01-09T15:54:19.005Z,101526.45
2019-01-09T15:59:21.839Z,101526.77
2019-01-09T16:04:24.544Z,101526.59
2019-01-09T16:09:27.027Z,101545.55
2019-01-09T16:14:29.777Z,101539.08
2019-01-09T16:19:32.206Z,101545.80
2019-01-09T16:24:35.341Z,101562.39
2019-01-09T16:29:38.232Z,101578.11
2019-01-09T16:34:41.416Z,101577.78
2019-01-09T16:39:44.462Z,101576.16
2019-01-09T16:44:46.949Z,101583.77
2019-01-09T16:49:49.971Z,101592.53
2019-01-09T16:54:52.235Z,101602.72
2019-01-09T16:59:55.030Z,101616.08
2019-01-09T17:04:57.838Z,101620.59
2019-01-09T17:10:00.944Z,101616.70
2019-01-09T17:15:05.037Z,101643.91
2019-01-09T17:20:10.412Z,101644.54
2019-01-09T17:25:13.881Z,101643.80
2019-01-09T17:30:21.766Z,101645.53
2019-01-09T17:35:24.578Z,101653.39
2019-01-09T17:40:27.177Z,101665.62
2019-01-09T17:45:29.956Z,101674.00
2019-01-09T17:50:34.159Z,101683.00
2019-01-09T17:55:36.912Z,101696.08
2019-01-09T18:00:41.326Z,101690.38
2019-01-09T18:05:43.731Z,101700.12
2019-01-09T18:10:50.326Z,101706.72
2019-01-09T18:15:51.130Z,101706.36
2019-01-09T18:20:53.927Z,101713.33
2019-01-09T18:25:56.131Z,101707.83
2019-01-09T18:31:36.865Z,101718.95
2019-01-09T18:36:52.950Z,101720.45
2019-01-09T18:42:13.331Z,101729.17
2019-01-09T18:48:19.560Z,101738.55
2019-01-09T18:53:29.529Z,101750.17
2019-01-09T18:58:32.479Z,101749.91
2019-01-09T19:03:35.674Z,101762.14
2019-01-09T19:08:38.655Z,101762.16
2019-01-09T19:13:41.521Z,101775.01
2019-01-09T19:18:44.820Z,101780.62
2019-01-09T19:23:47.687Z,101797.48
2019-01-09T19:28:51.552Z,101805.97
2019-01-09T19:33:55.066Z,101798.84
2019-01-09T19:38:58.232Z,101814.08
2019-01-09T19:44:01.634Z,101817.59
2019-01-09T19:49:05.837Z,101815.47
2019-01-09T19:54:08.686Z,101828.44
2019-01-09T19:59:12.180Z,101841.42
2019-01-09T20:04:17.361Z,101838.55
2019-01-09T20:09:20.599Z,101845.05
2019-01-09T20:14:24.386Z,101845.94
2019-01-09T20:19:30.573Z,101850.91
2019-01-09T20:24:34.232Z,101851.52
2019-01-09T20:29:38.859Z,101860.03
2019-01-09T20:34:42.577Z,101867.91
2019-01-09T20:39:46.153Z,101864.21
2019-01-09T20:44:49.140Z,101883.47
2019-01-09T20:49:52.790Z,101880.24
2019-01-09T20:54:55.491Z,101885.09
2019-01-09T20:59:58.617Z,101888.32
2019-01-09T21:05:01.739Z,101900.89
2019-01-09T21:10:06.298Z,101901.58
2019-01-09T21:15:11.114Z,101904.63
2019-01-09T21:20:16.248Z,101917.30
2019-01-09T21:25:19.967Z,101920.55
2019-01-09T21:30:23.751Z,101916.80
2019-01-09T21:35:26.281Z,101928.50
2019-01-09T21:40:30.013Z,101930.56
2019-01-09T21:45:32.905Z,101936.87
2019-01-09T21:50:35.608Z,101941.73
2019-01-09T21:55:38.390Z,101953.61
2019-01-09T22:00:41.557Z,101953.42
2019-01-09T22:05:44.445Z,101960.22
2019-01-09T22:10:47.283Z,101967.34
2019-01-09T22:15:49.812Z,101970.60
2019-01-09T22:20:52.289Z,101972.06
2019-01-09T22:25:55.105Z,101976.28
2019-01-09T22:30:58.012Z,101977.57
2019-01-09T22:36:00.409Z,101981.64
2019-01-09T22:41:03.576Z,101969.63
2019-01-09T22:46:06.204Z,101972.64
2019-01-09T22:51:09.104Z,101961.63
2019-01-09T22:56:12.267Z,101972.34
2019-01-09T23:01:23.449Z,101966.37
2019-01-09T23:06:26.181Z,101970.41
2019-01-09T23:11:29.008Z,101965.94
2019-01-09T23:16:31.813Z,101976.56
2019-01-09T23:21:34.481Z,101977.81
2019-01-09T23:26:36.675Z,101976.72
2019-01-09T23:31:39.470Z,101975.47
2019-01-09T23:36:42.283Z,101971.09
2019-01-09T23:41:44.780Z,101978.22
2019-01-09T23:46:48.113Z,101980.39
2019-01-09T23:51:50.966Z,101983.53
2019-01-09T23:56:53.996Z,101986.47
